createdAt,value
2022-12-31T00:02:09.303Z,0.45
2022-12-31T00:06:20.864Z,1.52
2022-12-31T00:10:22.299Z,1.20
2022-12-31T00:14:23.714Z,1.92
2022-12-31T00:18:26.875Z,0.88
2022-12-31T00:22:28.294Z,1.35
2022-12-31T00:26:31.700Z,1.77
2022-12-31T00:30:34.374Z,0.93
2022-12-31T00:34:35.912Z,1.33
2022-12-31T00:38:38.385Z,2.03
2022-12-31T00:42:39.914Z,1.25
2022-12-31T00:50:42.041Z,1.13
2022-12-31T00:54:43.708Z,0.75
2022-12-31T00:58:45.265Z,1.60
2022-12-31T01:02:46.784Z,2.40
2022-12-31T01:06:48.516Z,1.42
2022-12-31T01:11:08.482Z,1.50
2022-12-31T01:15:10.376Z,0.77
2022-12-31T01:19:17.978Z,0.63
2022-12-31T01:23:19.431Z,0.60
2022-12-31T01:27:20.853Z,1.60
2022-12-31T01:31:23.640Z,1.88
2022-12-31T01:35:25.586Z,2.22
2022-12-31T01:39:27.037Z,1.20
2022-12-31T01:43:50.082Z,0.65
2022-12-31T01:47:57.090Z,1.38
2022-12-31T01:52:06.588Z,0.60
2022-12-31T01:56:09.561Z,1.08
2022-12-31T02:00:11.635Z,1.05
2022-12-31T02:04:14.911Z,4.30
2022-12-31T02:08:17.485Z,1.40
2022-12-31T02:12:19.524Z,1.13
2022-12-31T02:16:37.667Z,1.10
2022-12-31T02:21:00.422Z,1.10
2022-12-31T02:25:01.856Z,2.10
2022-12-31T02:29:41.260Z,3.40
2022-12-31T02:33:52.120Z,3.90
2022-12-31T02:37:59.196Z,4.55
2022-12-31T02:42:02.609Z,2.30
2022-12-31T02:46:16.658Z,3.47
2022-12-31T02:50:32.430Z,1.52
2022-12-31T02:54:49.224Z,3.53
2022-12-31T02:59:39.135Z,1.65
2022-12-31T03:03:41.468Z,1.65
2022-12-31T03:07:44.242Z,1.70
2022-12-31T03:12:05.040Z,1.50
2022-12-31T03:16:06.779Z,1.17
2022-12-31T03:20:27.474Z,1.05
2022-12-31T03:24:47.726Z,0.63
2022-12-31T03:32:51.701Z,2.28
2022-12-31T03:36:53.149Z,0.73
2022-12-31T03:40:54.621Z,0.70
2022-12-31T03:44:56.105Z,0.98
2022-12-31T03:48:58.596Z,0.68
2022-12-31T03:53:00.727Z,1.08
2022-12-31T03:57:02.161Z,0.75
2022-12-31T04:01:03.655Z,1.05
2022-12-31T04:05:05.706Z,1.60
2022-12-31T04:09:07.108Z,0.63
2022-12-31T04:13:08.546Z,0.77
2022-12-31T04:17:10.033Z,1.58
2022-12-31T04:21:11.552Z,0.77
2022-12-31T04:25:13.241Z,1.85
2022-12-31T04:29:14.730Z,1.92
2022-12-31T04:33:16.150Z,0.90
2022-12-31T04:37:17.637Z,1.52
2022-12-31T04:41:19.758Z,1.23
2022-12-31T04:45:21.180Z,1.45
2022-12-31T04:49:22.642Z,1.75
2022-12-31T04:53:24.600Z,1.52
2022-12-31T04:57:26.037Z,1.27
2022-12-31T05:01:27.586Z,6.20
2022-12-31T05:05:29.129Z,0.68
2022-12-31T05:09:31.015Z,0.95
2022-12-31T05:13:33.817Z,0.80
2022-12-31T05:17:35.346Z,1.23
2022-12-31T05:21:37.007Z,0.90
2022-12-31T05:25:38.549Z,1.33
2022-12-31T05:29:39.966Z,2.47
2022-12-31T05:33:41.417Z,1.67
2022-12-31T05:37:43.459Z,0.88
2022-12-31T05:41:44.882Z,0.38
2022-12-31T05:45:46.350Z,0.57
2022-12-31T05:49:47.916Z,0.75
2022-12-31T05:53:49.314Z,0.95
2022-12-31T05:57:50.861Z,0.65
2022-12-31T06:01:52.304Z,0.85
2022-12-31T06:05:53.748Z,0.88
2022-12-31T06:09:55.186Z,0.52
2022-12-31T06:13:58.195Z,0.57
2022-12-31T06:17:59.737Z,0.93
2022-12-31T06:22:01.216Z,0.73
2022-12-31T06:26:06.487Z,0.80
2022-12-31T06:30:08.767Z,0.65
2022-12-31T06:34:10.303Z,1.67
2022-12-31T06:38:11.839Z,0.77
2022-12-31T06:42:14.336Z,0.50
2022-12-31T06:46:17.387Z,0.63
2022-12-31T06:50:19.019Z,0.40
2022-12-31T06:54:20.528Z,0.40
2022-12-31T06:58:22.336Z,0.60
2022-12-31T07:02:53.869Z,1.00
2022-12-31T07:07:13.282Z,3.33
2022-12-31T07:11:20.535Z,0.50
2022-12-31T07:15:55.192Z,0.40
2022-12-31T07:20:14.506Z,0.40
2022-12-31T07:24:16.430Z,0.40
2022-12-31T07:28:49.321Z,1.27
2022-12-31T07:33:00.123Z,0.32
2022-12-31T07:37:27.987Z,0.68
2022-12-31T07:41:54.658Z,0.30
2022-12-31T07:46:35.935Z,0.47
2022-12-31T07:50:38.646Z,0.20
2022-12-31T07:54:40.153Z,0.55
2022-12-31T07:59:02.503Z,0.75
2022-12-31T08:03:32.209Z,0.40
2022-12-31T08:08:00.697Z,0.80
2022-12-31T08:12:02.774Z,0.38
2022-12-31T08:16:04.600Z,0.63
2022-12-31T08:20:06.869Z,0.40
2022-12-31T08:24:43.877Z,0.55
2022-12-31T08:28:54.207Z,0.68
2022-12-31T08:33:28.822Z,2.85
2022-12-31T08:38:01.348Z,0.82
2022-12-31T08:42:10.005Z,0.77
2022-12-31T08:46:24.073Z,0.30
2022-12-31T08:50:25.895Z,1.65
2022-12-31T08:54:28.052Z,0.70
2022-12-31T08:58:42.472Z,0.63
2022-12-31T09:03:05.450Z,0.40
2022-12-31T09:07:09.508Z,0.45
2022-12-31T09:11:40.231Z,0.32
2022-12-31T09:15:52.206Z,0.30
2022-12-31T09:19:54.064Z,0.40
2022-12-31T09:23:55.711Z,1.08
2022-12-31T09:28:09.238Z,0.50
2022-12-31T09:32:25.233Z,0.30
2022-12-31T09:36:38.093Z,0.38
2022-12-31T09:41:02.097Z,0.25
2022-12-31T09:45:30.382Z,0.38
2022-12-31T09:50:11.080Z,0.80
2022-12-31T09:54:36.661Z,0.40
2022-12-31T09:59:02.987Z,0.50
2022-12-31T10:03:40.463Z,0.57
2022-12-31T10:08:16.714Z,0.32
2022-12-31T10:12:51.081Z,0.40
2022-12-31T10:17:27.819Z,0.30
2022-12-31T10:21:47.331Z,0.20
2022-12-31T10:26:16.793Z,0.50
2022-12-31T10:30:20.816Z,0.40
2022-12-31T10:34:31.413Z,0.45
2022-12-31T10:38:47.381Z,0.68
2022-12-31T10:43:22.442Z,1.35
2022-12-31T10:47:45.744Z,7.07
2022-12-31T10:51:59.481Z,3.60
2022-12-31T10:56:35.705Z,2.45
2022-12-31T11:01:13.351Z,1.52
2022-12-31T11:05:52.120Z,1.40
2022-12-31T11:10:36.079Z,1.75
2022-12-31T11:15:22.144Z,0.75
2022-12-31T11:20:17.718Z,0.55
2022-12-31T11:24:46.994Z,1.63
2022-12-31T11:29:11.570Z,0.77
2022-12-31T11:33:50.466Z,1.05
2022-12-31T11:38:27.866Z,0.75
2022-12-31T11:43:02.277Z,1.13
2022-12-31T11:47:22.018Z,0.57
2022-12-31T11:51:32.700Z,0.57
2022-12-31T11:55:49.692Z,3.25
2022-12-31T11:59:57.064Z,0.70
2022-12-31T12:03:58.860Z,0.57
2022-12-31T12:08:01.638Z,0.47
2022-12-31T12:12:05.257Z,0.30
2022-12-31T12:16:08.151Z,0.50
2022-12-31T12:20:19.979Z,0.50
2022-12-31T12:24:26.872Z,0.40
2022-12-31T12:28:44.323Z,0.65
2022-12-31T12:32:58.801Z,0.30
2022-12-31T12:37:01.441Z,0.50
2022-12-31T12:41:06.099Z,1.83
2022-12-31T12:45:15.792Z,0.52
2022-12-31T12:49:32.831Z,0.73
2022-12-31T12:54:22.364Z,0.50
2022-12-31T12:58:48.020Z,1.88
2022-12-31T13:03:12.475Z,0.20
2022-12-31T13:07:41.933Z,0.28
2022-12-31T13:12:10.092Z,0.50
2022-12-31T13:16:36.745Z,0.55
2022-12-31T13:20:50.040Z,0.35
2022-12-31T13:25:03.365Z,0.30
2022-12-31T13:29:08.757Z,0.35
2022-12-31T13:33:20.456Z,0.40
2022-12-31T13:37:27.394Z,0.75
2022-12-31T13:41:49.335Z,0.40
2022-12-31T14:48:43.500Z,0.28
2022-12-31T14:58:29.868Z,0.30
2022-12-31T15:02:34.368Z,0.40
2022-12-31T15:06:48.675Z,0.32
2022-12-31T15:11:03.686Z,0.30
2022-12-31T15:15:17.417Z,0.30
2022-12-31T15:19:18.836Z,0.35
2022-12-31T15:23:23.141Z,0.55
2022-12-31T15:27:33.273Z,0.30
2022-12-31T15:31:36.344Z,1.48
2022-12-31T15:35:48.198Z,0.30
2022-12-31T15:39:49.714Z,0.28
2022-12-31T15:43:51.154Z,0.52
2022-12-31T15:47:57.829Z,0.75
2022-12-31T15:52:07.926Z,0.93
2022-12-31T16:00:22.593Z,0.30
2022-12-31T16:04:32.532Z,1.05
2022-12-31T16:08:35.346Z,0.70
2022-12-31T16:12:44.323Z,1.20
2022-12-31T16:17:25.155Z,1.13
2022-12-31T16:21:35.746Z,0.50
2022-12-31T16:25:37.249Z,0.32
2022-12-31T16:29:45.838Z,0.32
2022-12-31T16:33:50.299Z,0.43
2022-12-31T16:38:31.480Z,0.40
2022-12-31T16:42:32.935Z,0.60
2022-12-31T16:46:35.608Z,0.60
2022-12-31T16:50:37.565Z,1.13
2022-12-31T16:54:43.774Z,2.92
2022-12-31T16:58:45.759Z,1.42
2022-12-31T17:03:05.088Z,8.65
2022-12-31T17:07:26.958Z,4.33
2022-12-31T17:11:34.862Z,4.40
2022-12-31T17:15:43.129Z,4.43
2022-12-31T17:19:48.648Z,11.27
2022-12-31T17:23:55.494Z,3.15
2022-12-31T17:28:00.586Z,4.65
2022-12-31T17:32:18.048Z,64.70
2022-12-31T17:36:24.738Z,29.88
2022-12-31T17:40:54.434Z,11.73
2022-12-31T17:45:00.590Z,7.07
2022-12-31T17:49:02.947Z,4.30
2022-12-31T17:53:12.218Z,3.25
2022-12-31T17:57:26.930Z,5.55
2022-12-31T18:01:28.575Z,3.67
2022-12-31T18:05:30.098Z,2.70
2022-12-31T18:09:34.588Z,4.18
2022-12-31T18:13:36.729Z,2.67
2022-12-31T18:17:38.216Z,3.85
2022-12-31T18:21:39.966Z,5.35
2022-12-31T18:29:41.909Z,14.63
2022-12-31T18:33:43.931Z,5.30
2022-12-31T18:37:45.984Z,3.25
2022-12-31T18:41:50.975Z,1.88
2022-12-31T18:45:53.092Z,4.15
2022-12-31T18:49:54.881Z,6.10
2022-12-31T18:53:56.443Z,1.65
2022-12-31T18:57:57.938Z,8.50
2022-12-31T19:01:59.486Z,8.77
2022-12-31T19:06:00.983Z,6.03
2022-12-31T19:10:02.404Z,3.40
2022-12-31T19:14:05.839Z,5.32
2022-12-31T19:18:07.515Z,9.18
2022-12-31T19:22:16.282Z,12.45
2022-12-31T19:26:20.128Z,35.97
2022-12-31T19:30:26.794Z,12.20
2022-12-31T19:34:28.367Z,3.88
2022-12-31T19:38:32.078Z,2.10
2022-12-31T19:42:33.541Z,1.90
2022-12-31T19:46:34.959Z,2.90
2022-12-31T19:50:36.435Z,1.23
2022-12-31T19:54:38.015Z,2.20
2022-12-31T19:58:39.635Z,4.25
2022-12-31T20:02:41.633Z,3.20
2022-12-31T20:06:43.204Z,4.75
2022-12-31T20:10:45.950Z,2.47
2022-12-31T20:14:47.379Z,2.25
2022-12-31T20:18:50.439Z,3.70
2022-12-31T20:22:52.237Z,10.25
2022-12-31T20:26:53.688Z,3.60
2022-12-31T20:30:55.302Z,2.17
2022-12-31T20:34:56.789Z,2.30
2022-12-31T20:38:58.608Z,2.17
2022-12-31T20:43:00.131Z,4.25
2022-12-31T20:47:01.595Z,5.28
2022-12-31T20:51:03.196Z,2.95
2022-12-31T20:55:05.403Z,2.83
2022-12-31T20:59:08.214Z,2.83
2022-12-31T21:03:30.102Z,1.75
2022-12-31T21:07:31.168Z,4.82
2022-12-31T21:11:51.105Z,4.53
2022-12-31T21:15:53.814Z,2.35
2022-12-31T21:19:55.248Z,3.35
2022-12-31T21:23:56.833Z,22.98
2022-12-31T21:27:58.277Z,13.30
2022-12-31T21:31:59.773Z,17.05
2022-12-31T21:36:04.794Z,10.80
2022-12-31T21:40:06.885Z,14.77
2022-12-31T21:44:08.350Z,8.85
2022-12-31T21:48:20.414Z,4.13
2022-12-31T21:52:28.452Z,4.40
2022-12-31T21:56:30.064Z,2.97
2022-12-31T22:00:50.337Z,1.90
2022-12-31T22:09:13.231Z,2.53
2022-12-31T22:13:15.901Z,4.68
2022-12-31T22:17:17.400Z,2.05
2022-12-31T22:21:21.182Z,3.85
2022-12-31T22:25:22.701Z,4.32
2022-12-31T22:29:25.856Z,3.47
2022-12-31T22:33:27.366Z,17.73
2022-12-31T22:37:56.236Z,7.22
2022-12-31T22:41:50.765Z,16.10
2022-12-31T22:45:52.843Z,3.15
2022-12-31T22:49:54.286Z,4.57
2022-12-31T22:53:55.730Z,7.53
2022-12-31T22:57:57.305Z,3.42
2022-12-31T23:01:58.712Z,19.90
2022-12-31T23:06:00.233Z,96.10
2022-12-31T23:10:20.340Z,202.40
2022-12-31T23:14:40.446Z,83.03
2022-12-31T23:19:05.403Z,51.33
2022-12-31T23:23:11.607Z,82.80
2022-12-31T23:27:13.177Z,47.78
2022-12-31T23:31:14.711Z,62.67
2022-12-31T23:35:16.211Z,93.68
2022-12-31T23:39:17.789Z,61.13
2022-12-31T23:43:22.012Z,52.95
2022-12-31T23:47:23.482Z,40.28
2022-12-31T23:51:24.944Z,46.15
2022-12-31T23:55:26.551Z,47.85
2022-12-31T23:59:28.085Z,28.02
